Michipicoten — CFG8060 — position and weather

sailwx.info

Track history (hours):
 
Tides and Currents Weather Stations Pressure Air Temp Water Temp Dewpoint Dewpoint Depression Visibility Wind Speed Wind Dir Waves Ship Positions

Michipicoten

Last reported at 2017-Dec-10 20:14 UTC. Time now 2017-Dec-12 16:07 UTC.
Position N 46°52' W 091°36'.

Length 213 m; draft 6.8 m.

Type: Ship. MMSI: 316002501.

Date/timePositionNaut miles runAvg speedWind from/ knotsBaromVisibWave heightAir tempDewpointWater temp
2017-Dec-10 20:14N 46°52' W 091°36'313.6
2017-Dec-10 20:01N 46°50' W 091°40'713.6
2017-Dec-10 19:30N 46°47' W 091°49'713.6
2017-Dec-10 19:00N 46°44' W 091°57'3 6.3
2017-Dec-10 18:30N 46°42' W 092°01'0 0.0
2017-Dec-10 18:00N 46°42' W 092°01'0 0.0
2017-Dec-10 17:30N 46°42' W 092°01'0 0.0
2017-Dec-10 17:00N 46°42' W 092°01'0 0.0
2017-Dec-10 16:30N 46°42' W 092°01'0 0.0
2017-Dec-10 16:00N 46°42' W 092°01'0 0.0
2017-Dec-10 15:30N 46°42' W 092°01'0 0.0
2017-Dec-10 15:00N 46°42' W 092°01'1 2.3
2017-Dec-10 14:30N 46°43' W 092°02'3 7.0
2017-Dec-10 14:00N 46°45' W 092°06'0 0.4
2017-Dec-10 13:30N 46°45' W 092°06'0 0.0
2017-Dec-10 13:00N 46°45' W 092°06'0 0.0
2017-Dec-10 12:30N 46°45' W 092°06'0 0.2
2017-Dec-10 12:00N 46°46' W 092°06'2 3.6
2017-Dec-10 11:30N 46°47' W 092°04'713.8
2017-Dec-10 11:01N 46°50' W 091°55'713.9
2017-Dec-10 10:30N 46°52' W 091°46'714.1
2017-Dec-10 10:00N 46°55' W 091°36'  
2017-Dec-02 08:11N 46°54' W 091°29'313.7
2017-Dec-02 08:00N 46°53' W 091°32'713.6
2017-Dec-02 07:30N 46°50' W 091°41'713.5
2017-Dec-02 07:00N 46°47' W 091°50'713.5
2017-Dec-02 06:30N 46°43' W 091°58'2 5.0
2017-Dec-02 06:00N 46°42' W 092°01'0 0.0
2017-Dec-02 05:30N 46°42' W 092°01'0 0.0
2017-Dec-02 05:00N 46°42' W 092°01'0 0.0
2017-Dec-02 04:30N 46°42' W 092°01'0 0.0
2017-Dec-02 04:00N 46°42' W 092°01'0 0.0
2017-Dec-02 03:30N 46°42' W 092°01'0 0.0
2017-Dec-02 03:00N 46°42' W 092°01'0 1.0
2017-Dec-02 02:30N 46°42' W 092°01'510.1
2017-Dec-02 02:00N 46°45' W 091°55'714.1
2017-Dec-02 01:30N 46°48' W 091°45'  
Track history (hours):
 
Tides and Currents Weather Stations Pressure Air Temp Water Temp Dewpoint Dewpoint Depression Visibility Wind Speed Wind Dir Waves Ship Positions

Michipicoten

Last reported at 2017-Dec-10 20:14 UTC. Time now 2017-Dec-12 16:07 UTC.
Position N 46°52' W 091°36'.

Length 213 m; draft 6.8 m.

Type: Ship. MMSI: 316002501.

Date/timePositionNaut miles runAvg speedWind from/ knotsBaromVisibWave heightAir tempDewpointWater temp
2017-Dec-10 20:14N 46°52' W 091°36'313.6
2017-Dec-10 20:01N 46°50' W 091°40'713.6
2017-Dec-10 19:30N 46°47' W 091°49'713.6
2017-Dec-10 19:00N 46°44' W 091°57'3 6.3
2017-Dec-10 18:30N 46°42' W 092°01'0 0.0
2017-Dec-10 18:00N 46°42' W 092°01'0 0.0
2017-Dec-10 17:30N 46°42' W 092°01'0 0.0
2017-Dec-10 17:00N 46°42' W 092°01'0 0.0
2017-Dec-10 16:30N 46°42' W 092°01'0 0.0
2017-Dec-10 16:00N 46°42' W 092°01'0 0.0
2017-Dec-10 15:30N 46°42' W 092°01'0 0.0
2017-Dec-10 15:00N 46°42' W 092°01'1 2.3
2017-Dec-10 14:30N 46°43' W 092°02'3 7.0
2017-Dec-10 14:00N 46°45' W 092°06'0 0.4
2017-Dec-10 13:30N 46°45' W 092°06'0 0.0
2017-Dec-10 13:00N 46°45' W 092°06'0 0.0
2017-Dec-10 12:30N 46°45' W 092°06'0 0.2
2017-Dec-10 12:00N 46°46' W 092°06'2 3.6
2017-Dec-10 11:30N 46°47' W 092°04'713.8
2017-Dec-10 11:01N 46°50' W 091°55'713.9
2017-Dec-10 10:30N 46°52' W 091°46'714.1
2017-Dec-10 10:00N 46°55' W 091°36'  
2017-Dec-02 08:11N 46°54' W 091°29'313.7
2017-Dec-02 08:00N 46°53' W 091°32'713.6
2017-Dec-02 07:30N 46°50' W 091°41'713.5
2017-Dec-02 07:00N 46°47' W 091°50'713.5
2017-Dec-02 06:30N 46°43' W 091°58'2 5.0
2017-Dec-02 06:00N 46°42' W 092°01'0 0.0
2017-Dec-02 05:30N 46°42' W 092°01'0 0.0
2017-Dec-02 05:00N 46°42' W 092°01'0 0.0
2017-Dec-02 04:30N 46°42' W 092°01'0 0.0
2017-Dec-02 04:00N 46°42' W 092°01'0 0.0
2017-Dec-02 03:30N 46°42' W 092°01'0 0.0
2017-Dec-02 03:00N 46°42' W 092°01'0 1.0
2017-Dec-02 02:30N 46°42' W 092°01'510.1
2017-Dec-02 02:00N 46°45' W 091°55'714.1
2017-Dec-02 01:30N 46°48' W 091°45'  

Dump ship's entire track history